Time;durP1;ratioP1;P1;durP2;ratioP2;P2;SDS_P1;SDS_P2;PMS_P1;PMS_P2;Temp;Humidity;BMP_temperature;BMP_pressure;BME280_temperature;BME280_humidity;BME280_pressure;Samples;Min_cycle;Max_cycle;Signal;HPM_P1;HPM_P2
2022/09/17 01:07:54;;;;;;;;;;;23.40;50.70;;;;;;6052360;29;19935;-42
2022/09/17 01:11:04;;;;;;;;;;;23.70;51.10;;;;;;6061499;29;19965;-40
2022/09/17 01:14:13;;;;;;;;;;;23.30;50.90;;;;;;6049749;29;20390;-40
2022/09/17 01:17:19;;;;;;;;;;;23.20;50.90;;;;;;6052497;29;20116;-40
2022/09/17 01:20:35;;;;;;;;;;;23.50;51.10;;;;;;6056961;29;19934;-40
2022/09/17 01:23:49;;;;;;;;;;;23.30;51.00;;;;;;6054922;29;20053;-39
2022/09/17 01:27:05;;;;;;;;;;;23.30;50.90;;;;;;6057647;29;20476;-40
2022/09/17 01:30:13;;;;;;;;;;;23.10;50.90;;;;;;6057443;29;19930;-40
2022/09/17 01:33:20;;;;;;;;;;;23.30;51.00;;;;;;6039285;29;20196;-40
2022/09/17 01:36:29;;;;;;;;;;;23.20;50.90;;;;;;6054426;29;20231;-40
2022/09/17 01:39:37;;;;;;;;;;;23.40;51.00;;;;;;6058009;29;20433;-41
2022/09/17 01:42:45;;;;;;;;;;;23.50;51.10;;;;;;6059741;29;20034;-41
2022/09/17 01:45:49;;;;;;;;;;;23.40;51.00;;;;;;6058098;29;19938;-42
2022/09/17 01:48:54;;;;;;;;;;;23.10;50.90;;;;;;6054380;29;19983;-40
2022/09/17 01:51:55;;;;;;;;;;;23.50;51.20;;;;;;6059266;29;20351;-41
2022/09/17 01:54:58;;;;;;;;;;;23.20;51.00;;;;;;6062548;29;20357;-40
2022/09/17 01:58:02;;;;;;;;;;;23.50;51.20;;;;;;6065250;29;19941;-42
2022/09/17 02:01:05;;;;;;;;;;;23.20;51.00;;;;;;6061449;29;19939;-41
2022/09/17 02:04:09;;;;;;;;;;;23.30;51.00;;;;;;6063612;29;20516;-40
2022/09/17 02:07:13;;;;;;;;;;;23.20;50.90;;;;;;6062868;29;19935;-40
2022/09/17 02:10:19;;;;;;;;;;;23.10;50.90;;;;;;6061516;29;20367;-40
2022/09/17 02:13:22;;;;;;;;;;;23.30;51.00;;;;;;6058041;29;20405;-40
2022/09/17 02:16:25;;;;;;;;;;;23.10;50.90;;;;;;6036254;29;20058;-41
2022/09/17 02:19:30;;;;;;;;;;;23.40;51.10;;;;;;6056332;29;19930;-40
2022/09/17 02:22:36;;;;;;;;;;;23.30;51.10;;;;;;6057777;29;19970;-41
2022/09/17 02:25:41;;;;;;;;;;;23.40;51.00;;;;;;6053481;29;20294;-40
2022/09/17 02:28:45;;;;;;;;;;;23.20;50.90;;;;;;6060220;29;20586;-41
2022/09/17 02:31:46;;;;;;;;;;;23.00;50.90;;;;;;6062134;29;20360;-41
2022/09/17 02:34:48;;;;;;;;;;;23.30;51.10;;;;;;6061545;29;20124;-40
2022/09/17 02:37:52;;;;;;;;;;;22.90;50.90;;;;;;6058680;29;20053;-41
2022/09/17 02:40:57;;;;;;;;;;;23.30;51.20;;;;;;6059160;29;19941;-41
2022/09/17 02:44:03;;;;;;;;;;;23.40;51.10;;;;;;6058640;29;20364;-40
2022/09/17 02:47:11;;;;;;;;;;;23.60;51.20;;;;;;6064826;29;20527;-40
2022/09/17 02:50:21;;;;;;;;;;;22.90;50.80;;;;;;6063799;29;20041;-41
2022/09/17 02:53:31;;;;;;;;;;;23.40;51.10;;;;;;6061414;29;19979;-43
2022/09/17 02:56:38;;;;;;;;;;;23.10;50.90;;;;;;6067679;29;20339;-40
2022/09/17 02:59:46;;;;;;;;;;;23.20;51.00;;;;;;6063852;29;19962;-41
2022/09/17 03:02:49;;;;;;;;;;;22.90;50.90;;;;;;6061526;29;20593;-40
2022/09/17 03:05:51;;;;;;;;;;;22.90;50.90;;;;;;6065813;29;19934;-40
2022/09/17 03:08:52;;;;;;;;;;;23.00;51.00;;;;;;6065576;29;20317;-42
2022/09/17 03:11:54;;;;;;;;;;;23.20;51.20;;;;;;6061117;29;20218;-40
2022/09/17 03:14:55;;;;;;;;;;;23.10;51.00;;;;;;6066941;29;20399;-40
2022/09/17 03:17:56;;;;;;;;;;;22.90;50.90;;;;;;6065511;29;20876;-40
2022/09/17 03:20:58;;;;;;;;;;;22.80;50.90;;;;;;6061936;29;20366;-41
2022/09/17 03:23:59;;;;;;;;;;;22.90;50.90;;;;;;6062268;29;20555;-40
2022/09/17 03:27:01;;;;;;;;;;;22.80;50.90;;;;;;6058570;29;20361;-40
2022/09/17 03:30:02;;;;;;;;;;;22.90;50.90;;;;;;6061836;29;20574;-41
2022/09/17 03:33:03;;;;;;;;;;;22.90;50.90;;;;;;6062096;29;20139;-40
2022/09/17 03:36:06;;;;;;;;;;;23.20;51.10;;;;;;6062565;29;20165;-43
2022/09/17 03:39:07;;;;;;;;;;;23.20;51.10;;;;;;6066963;29;20050;-40
2022/09/17 03:42:15;;;;;;;;;;;23.20;51.20;;;;;;6069511;29;20499;-40
2022/09/17 03:45:16;;;;;;;;;;;22.90;50.80;;;;;;6065555;29;20908;-42
2022/09/17 03:48:17;;;;;;;;;;;23.20;51.10;;;;;;6071201;29;20247;-40
2022/09/17 03:51:19;;;;;;;;;;;23.10;51.10;;;;;;6064861;29;20461;-41
2022/09/17 03:54:20;;;;;;;;;;;23.30;51.20;;;;;;6044557;29;20049;-40
2022/09/17 03:57:22;;;;;;;;;;;23.30;51.30;;;;;;6065297;29;20372;-40
2022/09/17 04:00:24;;;;;;;;;;;23.10;51.20;;;;;;6063918;29;20867;-40
2022/09/17 04:03:25;;;;;;;;;;;22.70;50.90;;;;;;6059933;29;21120;-42
2022/09/17 04:06:28;;;;;;;;;;;22.60;50.80;;;;;;6060879;29;20836;-40
2022/09/17 04:09:29;;;;;;;;;;;22.60;50.80;;;;;;6062223;29;20347;-42
2022/09/17 04:12:31;;;;;;;;;;;22.80;51.00;;;;;;6063397;29;20304;-40
2022/09/17 04:15:32;;;;;;;;;;;22.70;50.90;;;;;;6059906;28;19931;-41
2022/09/17 04:18:34;;;;;;;;;;;22.70;50.90;;;;;;6059260;29;20138;-40
2022/09/17 04:21:35;;;;;;;;;;;22.70;50.90;;;;;;6055978;29;20298;-41
2022/09/17 04:24:37;;;;;;;;;;;22.90;51.00;;;;;;6052846;29;20295;-42
2022/09/17 04:27:38;;;;;;;;;;;22.60;50.90;;;;;;6058731;29;19930;-40
2022/09/17 04:30:41;;;;;;;;;;;23.00;51.10;;;;;;6055658;29;20353;-40
2022/09/17 04:33:43;;;;;;;;;;;22.60;50.80;;;;;;6054868;29;20274;-40
2022/09/17 04:36:44;;;;;;;;;;;22.60;50.90;;;;;;6061358;29;20060;-41
2022/09/17 04:39:46;;;;;;;;;;;22.60;50.90;;;;;;6060811;29;19930;-40
2022/09/17 04:42:52;;;;;;;;;;;23.10;51.20;;;;;;6063114;29;20410;-41
2022/09/17 04:45:53;;;;;;;;;;;23.40;51.30;;;;;;6054953;29;19938;-42
2022/09/17 04:48:54;;;;;;;;;;;23.00;51.10;;;;;;6057823;29;20083;-41
2022/09/17 04:51:56;;;;;;;;;;;22.90;51.20;;;;;;6062010;29;20342;-41
2022/09/17 04:54:57;;;;;;;;;;;22.70;51.00;;;;;;6060533;29;20164;-41
2022/09/17 04:57:59;;;;;;;;;;;22.90;51.10;;;;;;6057088;29;20018;-40
2022/09/17 05:01:00;;;;;;;;;;;22.70;51.10;;;;;;6057842;29;20179;-40
2022/09/17 05:04:02;;;;;;;;;;;22.40;50.90;;;;;;6056607;29;20723;-40
2022/09/17 05:07:04;;;;;;;;;;;22.50;51.00;;;;;;6058134;28;20259;-41
2022/09/17 05:10:05;;;;;;;;;;;22.70;51.00;;;;;;6037361;29;20305;-40
2022/09/17 05:13:07;;;;;;;;;;;22.70;51.00;;;;;;6057800;29;20409;-40
2022/09/17 05:16:09;;;;;;;;;;;23.00;51.20;;;;;;6056523;29;20475;-42
2022/09/17 05:19:10;;;;;;;;;;;22.40;50.80;;;;;;6059312;29;19969;-39
2022/09/17 05:22:12;;;;;;;;;;;22.70;50.90;;;;;;6056435;29;20185;-40
2022/09/17 05:25:14;;;;;;;;;;;22.50;50.90;;;;;;6056628;29;20529;-40
2022/09/17 05:28:15;;;;;;;;;;;23.10;51.20;;;;;;6055212;29;20103;-41
2022/09/17 05:31:16;;;;;;;;;;;22.90;51.10;;;;;;6042490;29;20330;-40
2022/09/17 05:34:18;;;;;;;;;;;23.00;51.10;;;;;;6055665;29;20408;-40
2022/09/17 05:37:19;;;;;;;;;;;22.90;51.10;;;;;;6059575;29;19934;-40
2022/09/17 05:40:21;;;;;;;;;;;22.90;51.10;;;;;;6056417;29;20704;-40
2022/09/17 05:43:26;;;;;;;;;;;22.70;51.00;;;;;;6058091;29;20371;-40
2022/09/17 05:46:27;;;;;;;;;;;23.10;51.20;;;;;;6055558;29;20132;-40
2022/09/17 05:49:28;;;;;;;;;;;22.90;51.20;;;;;;6055297;29;20160;-40
2022/09/17 05:52:30;;;;;;;;;;;22.60;51.00;;;;;;6059418;29;20050;-40
2022/09/17 05:55:32;;;;;;;;;;;22.60;51.00;;;;;;6058264;29;20545;-40
2022/09/17 05:58:33;;;;;;;;;;;22.70;51.00;;;;;;6056417;29;20379;-40
2022/09/17 06:01:35;;;;;;;;;;;22.50;51.00;;;;;;6060542;29;19938;-40
2022/09/17 06:04:36;;;;;;;;;;;22.50;51.00;;;;;;6056152;29;19931;-40
2022/09/17 06:07:38;;;;;;;;;;;22.60;51.00;;;;;;6056650;29;20328;-41
2022/09/17 06:10:40;;;;;;;;;;;22.40;50.90;;;;;;6053831;29;20181;-40
2022/09/17 06:13:42;;;;;;;;;;;22.60;51.00;;;;;;6054264;29;20201;-40
2022/09/17 06:16:44;;;;;;;;;;;22.90;51.10;;;;;;6055757;29;19944;-40
2022/09/17 06:19:45;;;;;;;;;;;22.50;50.90;;;;;;6059246;29;19934;-40
2022/09/17 06:22:47;;;;;;;;;;;22.40;50.70;;;;;;6052887;29;20203;-40
2022/09/17 06:25:50;;;;;;;;;;;22.80;50.90;;;;;;6054860;29;20512;-41
2022/09/17 06:28:51;;;;;;;;;;;22.50;50.50;;;;;;6060546;29;20233;-40
2022/09/17 06:31:53;;;;;;;;;;;22.80;50.70;;;;;;6054275;29;20192;-40
2022/09/17 06:34:56;;;;;;;;;;;22.60;50.50;;;;;;6057484;29;20343;-41
2022/09/17 06:37:58;;;;;;;;;;;22.90;50.60;;;;;;6058185;29;20353;-41
2022/09/17 06:40:59;;;;;;;;;;;22.90;50.50;;;;;;6056547;29;19935;-41
2022/09/17 06:44:01;;;;;;;;;;;23.00;50.50;;;;;;6052281;29;20049;-40
2022/09/17 06:47:02;;;;;;;;;;;22.70;50.10;;;;;;6049678;29;20309;-40
2022/09/17 06:50:04;;;;;;;;;;;22.70;50.10;;;;;;6054741;29;20248;-40
2022/09/17 06:53:05;;;;;;;;;;;22.70;50.00;;;;;;6053683;29;19931;-40
2022/09/17 06:56:07;;;;;;;;;;;23.10;50.20;;;;;;6053224;29;20276;-40
2022/09/17 06:59:08;;;;;;;;;;;23.00;49.90;;;;;;6054264;29;20656;-41
2022/09/17 07:02:10;;;;;;;;;;;23.30;50.10;;;;;;6050424;29;20336;-40
2022/09/17 07:05:11;;;;;;;;;;;22.80;49.80;;;;;;6053983;29;19934;-41
2022/09/17 07:08:13;;;;;;;;;;;23.00;49.80;;;;;;6054822;29;20072;-40
2022/09/17 07:11:15;;;;;;;;;;;23.40;50.00;;;;;;6058271;29;20863;-41
2022/09/17 07:14:20;;;;;;;;;;;23.20;49.80;;;;;;6050824;29;19931;-40
2022/09/17 07:17:22;;;;;;;;;;;23.10;49.70;;;;;;6054110;29;20482;-41
2022/09/17 07:20:23;;;;;;;;;;;23.40;49.90;;;;;;6054426;29;19934;-40
2022/09/17 07:23:26;;;;;;;;;;;23.10;49.80;;;;;;6053069;29;20482;-40
2022/09/17 07:26:27;;;;;;;;;;;23.00;49.80;;;;;;6036076;29;19941;-42
2022/09/17 07:29:28;;;;;;;;;;;23.50;50.00;;;;;;6053968;29;20593;-40
2022/09/17 07:32:30;;;;;;;;;;;23.30;49.90;;;;;;6053582;29;22313;-41
2022/09/17 07:35:31;;;;;;;;;;;22.80;49.60;;;;;;6053840;29;20739;-41
2022/09/17 07:38:34;;;;;;;;;;;23.20;49.80;;;;;;6054060;29;20561;-42
2022/09/17 07:41:35;;;;;;;;;;;22.90;49.60;;;;;;6044021;29;20044;-42
2022/09/17 07:44:36;;;;;;;;;;;23.20;49.70;;;;;;6056625;29;20355;-40
2022/09/17 07:47:39;;;;;;;;;;;23.50;49.90;;;;;;6058811;29;20449;-41
2022/09/17 07:50:40;;;;;;;;;;;23.10;49.60;;;;;;6055859;28;19935;-41
2022/09/17 07:53:42;;;;;;;;;;;22.90;49.50;;;;;;6059134;29;20042;-42
2022/09/17 07:56:44;;;;;;;;;;;23.40;49.70;;;;;;6059039;29;19939;-42
2022/09/17 07:59:45;;;;;;;;;;;23.00;49.40;;;;;;6060577;29;20057;-40
2022/09/17 08:02:51;;;;;;;;;;;23.70;49.80;;;;;;6057475;29;19931;-40
2022/09/17 08:05:53;;;;;;;;;;;23.60;49.60;;;;;;6036603;29;19934;-40
2022/09/17 08:08:56;;;;;;;;;;;23.30;49.50;;;;;;6054260;29;20598;-41
2022/09/17 08:11:58;;;;;;;;;;;23.00;49.30;;;;;;6060486;29;20486;-40
2022/09/17 08:15:03;;;;;;;;;;;23.30;49.50;;;;;;6058916;29;19942;-40
2022/09/17 08:18:04;;;;;;;;;;;23.50;49.50;;;;;;6057707;29;20226;-40
2022/09/17 08:21:06;;;;;;;;;;;23.20;49.30;;;;;;6062621;29;20134;-41
2022/09/17 08:24:08;;;;;;;;;;;23.70;49.60;;;;;;6055841;29;21633;-40
2022/09/17 08:27:09;;;;;;;;;;;23.20;49.30;;;;;;6058852;29;20316;-40
2022/09/17 08:30:11;;;;;;;;;;;23.20;49.20;;;;;;6054459;29;20634;-42
2022/09/17 08:33:12;;;;;;;;;;;23.30;49.30;;;;;;6055735;29;20068;-40
2022/09/17 08:36:15;;;;;;;;;;;23.10;49.20;;;;;;6054809;29;19930;-40
2022/09/17 08:39:17;;;;;;;;;;;23.60;49.30;;;;;;6040327;29;19937;-43
2022/09/17 08:42:22;;;;;;;;;;;23.60;49.30;;;;;;6055131;29;20127;-40
2022/09/17 08:45:25;;;;;;;;;;;23.60;49.20;;;;;;6054743;29;19967;-40
2022/09/17 08:48:30;;;;;;;;;;;23.40;49.20;;;;;;6056324;29;19937;-40
2022/09/17 08:51:35;;;;;;;;;;;23.60;49.10;;;;;;6060096;29;20565;-40
2022/09/17 08:54:41;;;;;;;;;;;23.10;48.90;;;;;;6060127;29;19958;-40
2022/09/17 08:57:47;;;;;;;;;;;23.30;48.90;;;;;;6057588;29;20830;-41
2022/09/17 09:00:52;;;;;;;;;;;23.90;49.20;;;;;;6053849;29;20144;-41
2022/09/17 09:04:02;;;;;;;;;;;23.10;48.70;;;;;;6059925;29;20510;-43
2022/09/17 09:07:05;;;;;;;;;;;23.20;48.80;;;;;;6053319;29;20483;-40
2022/09/17 09:10:12;;;;;;;;;;;23.50;49.00;;;;;;6055896;29;20296;-41
2022/09/17 09:13:14;;;;;;;;;;;23.20;48.80;;;;;;6055106;29;20463;-40
2022/09/17 09:16:21;;;;;;;;;;;23.30;48.90;;;;;;6052429;29;20331;-40
2022/09/17 09:19:24;;;;;;;;;;;23.70;49.10;;;;;;6055607;29;19931;-40
2022/09/17 09:22:34;;;;;;;;;;;23.70;49.10;;;;;;6052897;29;20103;-41
2022/09/17 09:25:40;;;;;;;;;;;23.20;48.80;;;;;;6061870;29;19937;-42
2022/09/17 09:28:49;;;;;;;;;;;23.10;48.70;;;;;;6059740;29;20764;-42
2022/09/17 09:32:03;;;;;;;;;;;23.30;48.70;;;;;;6059395;29;20141;-41
2022/09/17 09:35:18;;;;;;;;;;;23.30;48.70;;;;;;6057356;29;20352;-41
2022/09/17 09:38:24;;;;;;;;;;;23.50;48.80;;;;;;6054896;29;20394;-40
2022/09/17 09:41:30;;;;;;;;;;;23.50;48.70;;;;;;6046496;29;20414;-40
2022/09/17 09:44:31;;;;;;;;;;;23.60;48.70;;;;;;6059016;29;19937;-43
2022/09/17 09:47:39;;;;;;;;;;;23.50;48.70;;;;;;6056020;29;20543;-40
2022/09/17 09:50:45;;;;;;;;;;;23.40;48.60;;;;;;6058219;29;20047;-40
2022/09/17 09:54:11;;;;;;;;;;;23.60;48.70;;;;;;6056818;29;20420;-40
2022/09/17 09:57:14;;;;;;;;;;;23.50;48.50;;;;;;6045253;29;20254;-41
2022/09/17 10:00:21;;;;;;;;;;;23.70;48.60;;;;;;6050721;29;20763;-40
2022/09/17 10:03:25;;;;;;;;;;;23.40;48.40;;;;;;6057405;29;20231;-43
2022/09/17 10:06:29;;;;;;;;;;;23.80;48.70;;;;;;6031809;29;20305;-41
2022/09/17 10:09:31;;;;;;;;;;;23.70;48.50;;;;;;6053653;29;20402;-40
2022/09/17 10:12:33;;;;;;;;;;;23.50;48.50;;;;;;6053809;29;20029;-40
2022/09/17 10:15:34;;;;;;;;;;;23.30;48.40;;;;;;6056054;29;20035;-43
2022/09/17 10:18:42;;;;;;;;;;;23.70;48.50;;;;;;6056873;29;20392;-40
2022/09/17 10:21:44;;;;;;;;;;;23.70;48.50;;;;;;6057485;29;19947;-40
2022/09/17 10:24:46;;;;;;;;;;;23.30;48.20;;;;;;6055883;29;20816;-40
2022/09/17 10:27:48;;;;;;;;;;;23.20;48.10;;;;;;6057271;29;20336;-41
2022/09/17 10:30:57;;;;;;;;;;;23.50;48.30;;;;;;6053005;29;20061;-40
2022/09/17 10:34:00;;;;;;;;;;;23.70;48.30;;;;;;6057120;29;20437;-41
2022/09/17 10:37:01;;;;;;;;;;;23.60;48.30;;;;;;6054480;29;20007;-41
2022/09/17 10:40:23;;;;;;;;;;;23.70;48.40;;;;;;6056311;29;19956;-41
2022/09/17 10:43:25;;;;;;;;;;;23.70;48.20;;;;;;6037151;29;20213;-41
2022/09/17 10:46:28;;;;;;;;;;;23.40;48.00;;;;;;6053924;29;20626;-40
2022/09/17 10:49:36;;;;;;;;;;;23.50;48.00;;;;;;6053130;29;19939;-40
2022/09/17 10:52:41;;;;;;;;;;;23.80;48.20;;;;;;6053067;29;20269;-40
2022/09/17 10:55:44;;;;;;;;;;;24.10;48.30;;;;;;6053679;29;20208;-41
2022/09/17 10:58:52;;;;;;;;;;;23.90;48.10;;;;;;6059937;29;20635;-41
2022/09/17 11:02:03;;;;;;;;;;;24.00;48.10;;;;;;6050973;29;20360;-42
2022/09/17 11:05:12;;;;;;;;;;;24.10;48.20;;;;;;6055367;29;20500;-41
2022/09/17 11:08:16;;;;;;;;;;;23.90;48.00;;;;;;6058617;29;20003;-41
2022/09/17 11:11:23;;;;;;;;;;;23.70;47.80;;;;;;6054417;29;20605;-40
2022/09/17 11:14:36;;;;;;;;;;;23.70;47.80;;;;;;6058578;29;20239;-40
2022/09/17 11:17:51;;;;;;;;;;;24.00;47.90;;;;;;6056623;29;20375;-41
2022/09/17 11:21:07;;;;;;;;;;;24.00;47.90;;;;;;6059612;29;20471;-41
2022/09/17 11:24:21;;;;;;;;;;;23.80;47.80;;;;;;6055648;29;20695;-40
2022/09/17 11:27:33;;;;;;;;;;;23.90;47.80;;;;;;6058863;29;19934;-41
2022/09/17 11:30:42;;;;;;;;;;;23.70;47.60;;;;;;6063389;29;20233;-40
2022/09/17 11:33:49;;;;;;;;;;;23.70;47.60;;;;;;6058692;29;20332;-41
2022/09/17 11:36:54;;;;;;;;;;;24.00;47.60;;;;;;6057328;29;20404;-40
2022/09/17 11:39:59;;;;;;;;;;;23.80;47.60;;;;;;6059125;29;20050;-42
2022/09/17 11:43:01;;;;;;;;;;;23.50;47.40;;;;;;6059825;29;20361;-42
2022/09/17 11:46:06;;;;;;;;;;;24.20;47.80;;;;;;6056095;29;20559;-41
2022/09/17 11:49:12;;;;;;;;;;;23.60;47.40;;;;;;6050198;29;19934;-40
2022/09/17 11:52:16;;;;;;;;;;;23.80;47.50;;;;;;6051095;29;19930;-41
2022/09/17 11:55:20;;;;;;;;;;;24.30;47.70;;;;;;6054024;29;20053;-41
2022/09/17 11:58:25;;;;;;;;;;;23.60;47.30;;;;;;6053206;29;19942;-40
2022/09/17 12:01:29;;;;;;;;;;;23.70;47.30;;;;;;6051998;29;20030;-40
2022/09/17 12:04:42;;;;;;;;;;;23.90;47.40;;;;;;6051859;29;21057;-40
2022/09/17 12:07:46;;;;;;;;;;;24.00;47.40;;;;;;6034940;29;20259;-40
2022/09/17 12:10:51;;;;;;;;;;;23.80;47.30;;;;;;6044940;29;19934;-41
2022/09/17 12:13:55;;;;;;;;;;;23.60;47.10;;;;;;6052853;29;20355;-42
2022/09/17 12:16:58;;;;;;;;;;;24.10;47.40;;;;;;6051718;29;19930;-40
2022/09/17 12:20:02;;;;;;;;;;;24.00;47.30;;;;;;6036481;29;20061;-41
2022/09/17 12:23:09;;;;;;;;;;;24.00;47.30;;;;;;6054247;29;19934;-42
2022/09/17 12:26:16;;;;;;;;;;;23.80;47.20;;;;;;6049459;29;20049;-42
2022/09/17 12:29:26;;;;;;;;;;;23.80;47.10;;;;;;6052638;29;20793;-40
2022/09/17 12:32:35;;;;;;;;;;;23.60;46.90;;;;;;6047326;29;20229;-42
2022/09/17 12:35:51;;;;;;;;;;;24.00;47.20;;;;;;6050984;29;20362;-43
2022/09/17 12:39:20;;;;;;;;;;;24.00;46.90;;;;;;6047880;29;19930;-40
2022/09/17 12:42:32;;;;;;;;;;;24.10;47.10;;;;;;6052859;29;20455;-42
2022/09/17 12:45:40;;;;;;;;;;;24.00;47.10;;;;;;6055692;29;20394;-41
2022/09/17 12:48:57;;;;;;;;;;;24.00;47.00;;;;;;6049749;29;19974;-42
2022/09/17 12:52:00;;;;;;;;;;;23.90;46.90;;;;;;6040232;29;19934;-40
2022/09/17 12:55:13;;;;;;;;;;;24.10;47.00;;;;;;6045383;29;19990;-41
2022/09/17 12:58:23;;;;;;;;;;;24.10;46.90;;;;;;6048231;29;19938;-40
2022/09/17 13:01:27;;;;;;;;;;;24.00;46.80;;;;;;6043851;29;19978;-39
2022/09/17 13:04:38;;;;;;;;;;;24.10;46.80;;;;;;6038285;29;20509;-40
2022/09/17 13:08:11;;;;;;;;;;;24.10;46.80;;;;;;6027342;29;19934;-40
2022/09/17 13:11:28;;;;;;;;;;;23.90;46.60;;;;;;6040819;29;19931;-40
2022/09/17 13:14:37;;;;;;;;;;;24.10;46.70;;;;;;6044462;29;19986;-41
2022/09/17 13:17:42;;;;;;;;;;;23.80;46.50;;;;;;6045728;29;20041;-41
2022/09/17 13:20:54;;;;;;;;;;;24.30;46.70;;;;;;6045346;29;20001;-40
2022/09/17 13:23:55;;;;;;;;;;;24.30;46.60;;;;;;6045421;29;20122;-43
2022/09/17 13:26:58;;;;;;;;;;;24.20;46.60;;;;;;6042475;29;19938;-42
2022/09/17 13:30:00;;;;;;;;;;;24.00;46.50;;;;;;6021187;29;20143;-41
2022/09/17 13:33:02;;;;;;;;;;;24.30;46.60;;;;;;6016550;29;20426;-41
2022/09/17 13:36:03;;;;;;;;;;;24.30;46.60;;;;;;6035236;29;21074;-43
2022/09/17 13:39:06;;;;;;;;;;;24.00;46.40;;;;;;6027517;29;19930;-44
2022/09/17 13:42:11;;;;;;;;;;;23.90;46.30;;;;;;6010576;29;20381;-41
2022/09/17 13:45:15;;;;;;;;;;;24.30;46.50;;;;;;6028866;29;20329;-41
2022/09/17 13:48:19;;;;;;;;;;;24.20;46.40;;;;;;6038708;29;20332;-41
2022/09/17 13:51:31;;;;;;;;;;;24.10;46.20;;;;;;6019285;29;20469;-43
2022/09/17 13:54:37;;;;;;;;;;;24.20;46.30;;;;;;6032532;29;20483;-41
2022/09/17 13:57:46;;;;;;;;;;;24.20;46.20;;;;;;6030186;29;20379;-41
2022/09/17 14:00:50;;;;;;;;;;;24.70;46.40;;;;;;6031959;29;19934;-42
2022/09/17 14:03:53;;;;;;;;;;;24.50;46.30;;;;;;6015688;29;20271;-41
2022/09/17 14:06:54;;;;;;;;;;;24.10;46.00;;;;;;6021083;29;19931;-41
2022/09/17 14:09:56;;;;;;;;;;;24.40;46.20;;;;;;6035616;29;20018;-41
2022/09/17 14:13:13;;;;;;;;;;;24.40;46.20;;;;;;6012890;29;19935;-43
2022/09/17 14:16:34;;;;;;;;;;;24.50;46.10;;;;;;6020114;29;19961;-41
2022/09/17 14:19:44;;;;;;;;;;;24.30;46.00;;;;;;6035345;29;20182;-40
2022/09/17 14:22:53;;;;;;;;;;;24.50;46.00;;;;;;6034385;29;19930;-41
2022/09/17 14:25:55;;;;;;;;;;;24.20;45.90;;;;;;6032145;29;20074;-41
2022/09/17 14:29:01;;;;;;;;;;;24.70;46.10;;;;;;6028569;29;20362;-40
2022/09/17 14:32:05;;;;;;;;;;;24.50;46.00;;;;;;6026887;29;20267;-42
2022/09/17 14:35:13;;;;;;;;;;;24.10;45.70;;;;;;6033388;29;20377;-40
2022/09/17 14:38:22;;;;;;;;;;;24.20;45.70;;;;;;6021760;29;19934;-41
2022/09/17 14:41:24;;;;;;;;;;;24.30;45.80;;;;;;6016986;29;20065;-40
2022/09/17 14:44:31;;;;;;;;;;;24.50;45.90;;;;;;6022838;29;20146;-40
2022/09/17 14:47:33;;;;;;;;;;;24.40;45.80;;;;;;6032171;29;20193;-40
2022/09/17 14:50:35;;;;;;;;;;;24.30;45.70;;;;;;6035177;29;19973;-40
2022/09/17 14:53:37;;;;;;;;;;;24.50;45.70;;;;;;6039169;29;21632;-41
2022/09/17 14:56:46;;;;;;;;;;;24.50;45.70;;;;;;6037366;29;20402;-41
2022/09/17 14:59:49;;;;;;;;;;;24.80;45.80;;;;;;6036851;29;20232;-41
2022/09/17 15:02:52;;;;;;;;;;;24.50;45.70;;;;;;6027247;29;20061;-41
2022/09/17 15:05:55;;;;;;;;;;;24.30;45.50;;;;;;6036737;29;20081;-40
2022/09/17 15:08:56;;;;;;;;;;;24.30;45.50;;;;;;6036069;29;20437;-41
2022/09/17 15:11:59;;;;;;;;;;;24.90;45.80;;;;;;6039936;29;20699;-42
2022/09/17 15:15:00;;;;;;;;;;;24.70;45.70;;;;;;6034439;28;19941;-40
2022/09/17 15:18:03;;;;;;;;;;;24.60;45.60;;;;;;6033324;29;20252;-41
2022/09/17 15:21:10;;;;;;;;;;;24.40;45.50;;;;;;6031672;29;20900;-40
2022/09/17 15:24:14;;;;;;;;;;;24.60;45.60;;;;;;6033146;29;20029;-41
2022/09/17 15:27:20;;;;;;;;;;;24.40;45.40;;;;;;6030967;29;20246;-40
2022/09/17 15:30:25;;;;;;;;;;;24.20;45.30;;;;;;6013821;29;19934;-40
2022/09/17 15:33:27;;;;;;;;;;;24.30;45.30;;;;;;6033013;29;20718;-41
2022/09/17 15:36:30;;;;;;;;;;;24.60;45.50;;;;;;6033633;29;19981;-42
2022/09/17 15:39:37;;;;;;;;;;;24.70;45.50;;;;;;6030039;29;20382;-41
2022/09/17 15:42:38;;;;;;;;;;;24.80;45.50;;;;;;6036065;29;20289;-41
2022/09/17 15:45:41;;;;;;;;;;;24.60;45.40;;;;;;6029344;29;20243;-41
2022/09/17 15:48:42;;;;;;;;;;;24.50;45.40;;;;;;6028775;29;20061;-40
2022/09/17 15:51:44;;;;;;;;;;;24.80;45.50;;;;;;6037038;29;19949;-42
2022/09/17 15:54:45;;;;;;;;;;;24.20;45.10;;;;;;6027691;29;20413;-41
2022/09/17 15:57:50;;;;;;;;;;;24.70;45.30;;;;;;6027280;29;20379;-40
2022/09/17 16:01:10;;;;;;;;;;;24.70;45.30;;;;;;6014428;29;20057;-40
2022/09/17 16:04:26;;;;;;;;;;;24.20;45.00;;;;;;6027546;29;19935;-41
2022/09/17 16:07:29;;;;;;;;;;;24.80;45.90;;;;;;6010991;29;20022;-40
2022/09/17 16:10:30;;;;;;;;;;;24.70;45.20;;;;;;6025694;29;20021;-43
2022/09/17 16:13:31;;;;;;;;;;;24.80;45.30;;;;;;6032436;29;20002;-42
2022/09/17 16:16:33;;;;;;;;;;;24.50;45.10;;;;;;6036832;29;19931;-42
2022/09/17 16:19:34;;;;;;;;;;;24.40;45.00;;;;;;6033553;29;20355;-40
2022/09/17 16:22:37;;;;;;;;;;;24.60;45.10;;;;;;6029443;29;19974;-41
2022/09/17 16:25:39;;;;;;;;;;;24.80;45.20;;;;;;6030760;29;20399;-41
2022/09/17 16:28:41;;;;;;;;;;;24.50;45.00;;;;;;6018303;29;20325;-41
2022/09/17 16:31:46;;;;;;;;;;;24.30;44.90;;;;;;6032244;29;20497;-41
2022/09/17 16:34:47;;;;;;;;;;;24.80;45.10;;;;;;6029890;29;20593;-40
2022/09/17 16:37:49;;;;;;;;;;;24.80;45.00;;;;;;6030868;29;19954;-40
2022/09/17 16:40:51;;;;;;;;;;;24.70;44.90;;;;;;6020056;29;20265;-41
2022/09/17 16:43:52;;;;;;;;;;;24.70;44.90;;;;;;6035555;29;19935;-40
2022/09/17 16:46:53;;;;;;;;;;;24.40;44.70;;;;;;6038147;29;19961;-42
2022/09/17 16:49:55;;;;;;;;;;;24.70;44.80;;;;;;6032954;29;19934;-40
2022/09/17 16:52:57;;;;;;;;;;;24.80;44.80;;;;;;6030835;29;20314;-40
2022/09/17 16:56:06;;;;;;;;;;;24.50;44.60;;;;;;6033061;29;19997;-42
2022/09/17 16:59:07;;;;;;;;;;;24.60;44.60;;;;;;6034921;29;20053;-40
2022/09/17 17:02:09;;;;;;;;;;;24.90;44.80;;;;;;6023870;29;19939;-40
2022/09/17 17:05:10;;;;;;;;;;;24.60;44.50;;;;;;6031642;29;19934;-40
2022/09/17 17:08:13;;;;;;;;;;;24.40;44.40;;;;;;6034552;29;20142;-41
2022/09/17 17:11:14;;;;;;;;;;;24.70;44.50;;;;;;6035426;29;20210;-40
2022/09/17 17:14:16;;;;;;;;;;;24.90;44.50;;;;;;6016163;29;20041;-40
2022/09/17 17:17:17;;;;;;;;;;;25.00;44.60;;;;;;6033050;29;19942;-40
2022/09/17 17:20:19;;;;;;;;;;;24.90;44.60;;;;;;6037082;29;20462;-40
2022/09/17 17:23:20;;;;;;;;;;;24.80;45.00;;;;;;6028215;29;20173;-40
2022/09/17 17:26:22;;;;;;;;;;;24.60;44.30;;;;;;6033540;29;20369;-40
2022/09/17 17:29:26;;;;;;;;;;;24.90;44.50;;;;;;6028887;29;19930;-41
2022/09/17 17:32:28;;;;;;;;;;;24.90;44.40;;;;;;6029064;29;20730;-42
2022/09/17 17:35:29;;;;;;;;;;;24.80;44.40;;;;;;6035450;29;20176;-43
2022/09/17 17:38:31;;;;;;;;;;;24.70;44.30;;;;;;6030332;29;20646;-41
2022/09/17 17:41:32;;;;;;;;;;;25.10;44.50;;;;;;6015940;29;20838;-40
2022/09/17 17:44:34;;;;;;;;;;;24.80;44.40;;;;;;6035839;29;20528;-40
2022/09/17 17:47:35;;;;;;;;;;;24.70;44.30;;;;;;6030956;29;20061;-40
2022/09/17 17:50:36;;;;;;;;;;;24.80;44.30;;;;;;6033791;29;20104;-40
2022/09/17 17:53:41;;;;;;;;;;;25.10;44.50;;;;;;6035443;29;20045;-40
2022/09/17 17:56:42;;;;;;;;;;;24.60;44.30;;;;;;6016483;29;20716;-41
2022/09/17 17:59:44;;;;;;;;;;;25.10;44.50;;;;;;6029052;29;20489;-44
2022/09/17 18:02:45;;;;;;;;;;;24.60;44.30;;;;;;6034611;29;20057;-40
2022/09/17 18:05:47;;;;;;;;;;;25.10;44.50;;;;;;6034981;29;20438;-41
2022/09/17 18:08:49;;;;;;;;;;;25.00;44.40;;;;;;6033418;29;19934;-42
2022/09/17 18:11:50;;;;;;;;;;;24.90;44.40;;;;;;6017519;29;20089;-40
2022/09/17 18:14:51;;;;;;;;;;;24.60;44.30;;;;;;6027652;29;20718;-40
2022/09/17 18:17:53;;;;;;;;;;;24.60;44.30;;;;;;6031912;29;20509;-40
2022/09/17 18:20:58;;;;;;;;;;;24.70;44.30;;;;;;6035489;29;20378;-41
2022/09/17 18:24:00;;;;;;;;;;;24.70;44.20;;;;;;6034763;29;20013;-41
2022/09/17 18:27:02;;;;;;;;;;;25.00;44.40;;;;;;6031387;29;20415;-40
2022/09/17 18:30:04;;;;;;;;;;;24.90;44.40;;;;;;6036199;29;20503;-40
2022/09/17 18:33:06;;;;;;;;;;;24.50;44.10;;;;;;6029323;29;20421;-40
2022/09/17 18:36:09;;;;;;;;;;;24.90;44.40;;;;;;6031581;29;19934;-40
2022/09/17 18:39:13;;;;;;;;;;;25.10;44.50;;;;;;6014166;29;20053;-41
2022/09/17 18:42:35;;;;;;;;;;;24.50;44.20;;;;;;6022031;29;20223;-41
2022/09/17 18:45:36;;;;;;;;;;;24.90;44.40;;;;;;6030661;29;19973;-41
2022/09/17 18:48:37;;;;;;;;;;;24.90;44.40;;;;;;6028689;29;20727;-42
2022/09/17 18:51:38;;;;;;;;;;;24.60;44.30;;;;;;6032352;29;20460;-40
2022/09/17 18:54:40;;;;;;;;;;;24.70;44.40;;;;;;6040375;29;20082;-40
2022/09/17 18:57:41;;;;;;;;;;;24.50;44.30;;;;;;6048261;29;20000;-40